createdAt,value
2022-12-18T00:04:51.331Z,15.90
2022-12-18T00:09:53.043Z,15.90
2022-12-18T00:14:54.739Z,15.90
2022-12-18T00:19:56.580Z,15.90
2022-12-18T00:24:58.351Z,15.80
2022-12-18T00:30:00.083Z,15.80
2022-12-18T00:35:01.864Z,15.80
2022-12-18T00:40:03.561Z,15.80
2022-12-18T00:45:12.120Z,15.80
2022-12-18T00:50:14.740Z,15.80
2022-12-18T00:55:16.503Z,15.70
2022-12-18T01:00:18.205Z,15.70
2022-12-18T01:05:19.951Z,15.60
2022-12-18T01:10:21.708Z,15.60
2022-12-18T01:15:23.319Z,15.60
2022-12-18T01:20:25.052Z,15.60
2022-12-18T01:25:26.746Z,15.60
2022-12-18T01:30:28.633Z,15.60
2022-12-18T01:35:30.483Z,15.60
2022-12-18T01:40:32.212Z,15.60
2022-12-18T01:45:33.979Z,15.50
2022-12-18T01:50:40.883Z,15.50
2022-12-18T01:56:02.900Z,15.50
2022-12-18T02:06:34.074Z,15.40
2022-12-18T02:11:38.534Z,15.50
2022-12-18T02:17:03.888Z,15.50
2022-12-18T02:22:14.580Z,15.50
2022-12-18T02:27:16.303Z,15.50
2022-12-18T02:32:21.034Z,15.50
2022-12-18T02:37:23.275Z,15.40
2022-12-18T02:42:25.413Z,15.40
2022-12-18T02:47:30.531Z,15.30
2022-12-18T02:52:32.331Z,15.30
2022-12-18T02:57:45.882Z,15.40
2022-12-18T03:02:50.797Z,15.40
2022-12-18T03:08:08.540Z,15.40
2022-12-18T03:13:12.931Z,15.40
2022-12-18T03:18:17.653Z,15.30
2022-12-18T03:23:26.135Z,15.30
2022-12-18T03:28:29.169Z,15.30
2022-12-18T03:33:33.190Z,15.30
2022-12-18T03:38:34.857Z,15.30
2022-12-18T03:43:55.523Z,15.30
2022-12-18T03:49:01.034Z,15.30
2022-12-18T03:54:04.956Z,15.30
2022-12-18T03:59:06.764Z,15.20
2022-12-18T04:04:09.329Z,15.20
2022-12-18T04:09:10.947Z,15.20
2022-12-18T04:14:17.689Z,15.10
2022-12-18T04:19:20.130Z,15.20
2022-12-18T04:24:21.806Z,15.20
2022-12-18T04:29:23.452Z,15.20
2022-12-18T04:34:25.081Z,15.20
2022-12-18T04:39:27.162Z,15.10
2022-12-18T04:44:28.789Z,15.10
2022-12-18T06:06:58.564Z,15.80
2022-12-18T06:12:00.132Z,16.20
2022-12-18T06:17:01.686Z,16.40
2022-12-18T06:22:03.523Z,16.60
2022-12-18T06:27:05.386Z,16.80
2022-12-18T06:32:07.179Z,17.00
2022-12-18T06:37:08.772Z,17.10
2022-12-18T06:42:10.439Z,17.30
2022-12-18T06:47:12.063Z,17.40
2022-12-18T06:52:13.823Z,17.50
2022-12-18T06:57:15.441Z,17.60
2022-12-18T07:02:17.747Z,17.60
2022-12-18T07:07:19.532Z,17.70
2022-12-18T07:12:21.259Z,17.70
2022-12-18T07:17:22.950Z,17.70
2022-12-18T07:22:26.243Z,17.80
2022-12-18T07:27:27.925Z,17.80
2022-12-18T07:32:30.940Z,17.90
2022-12-18T07:37:32.533Z,18.00
2022-12-18T07:42:34.230Z,17.90
2022-12-18T07:47:37.190Z,17.80
2022-12-18T07:52:38.801Z,17.70
2022-12-18T07:58:00.837Z,17.50
2022-12-18T08:03:02.296Z,17.30
2022-12-18T08:08:03.938Z,17.20
2022-12-18T08:13:05.571Z,17.00
2022-12-18T08:18:11.336Z,17.00
2022-12-18T08:23:15.612Z,16.90
2022-12-18T08:28:17.427Z,16.80
2022-12-18T08:33:19.126Z,16.80
2022-12-18T08:38:20.806Z,16.80
2022-12-18T08:43:41.690Z,16.90
2022-12-18T08:48:43.529Z,17.00
2022-12-18T08:53:45.686Z,17.30
2022-12-18T08:58:47.689Z,17.50
2022-12-18T09:03:49.818Z,17.60
2022-12-18T09:08:51.695Z,17.80
2022-12-18T09:13:54.703Z,18.00
2022-12-18T09:19:00.397Z,18.10
2022-12-18T09:24:02.009Z,18.00
2022-12-18T09:29:04.274Z,18.00
2022-12-18T09:34:06.057Z,18.10
2022-12-18T09:39:08.973Z,18.10
2022-12-18T09:44:13.566Z,18.20
2022-12-18T09:49:18.591Z,18.30
2022-12-18T09:54:26.952Z,18.40
2022-12-18T09:59:40.880Z,18.50
2022-12-18T10:04:42.812Z,18.50
2022-12-18T10:09:49.041Z,18.40
2022-12-18T10:14:57.313Z,18.30
2022-12-18T10:20:01.851Z,18.20
2022-12-18T10:25:07.881Z,18.20
2022-12-18T10:30:19.302Z,18.30
2022-12-18T10:35:22.615Z,18.40
2022-12-18T10:40:24.458Z,18.50
2022-12-18T10:45:26.293Z,18.60
2022-12-18T10:50:47.157Z,18.70
2022-12-18T10:55:57.286Z,18.60
2022-12-18T11:01:03.699Z,18.40
2022-12-18T11:06:08.209Z,18.40
2022-12-18T11:11:20.354Z,18.30
2022-12-18T11:16:22.294Z,18.30
2022-12-18T11:21:24.064Z,18.20
2022-12-18T11:26:34.994Z,18.00
2022-12-18T11:31:36.640Z,18.00
2022-12-18T11:36:46.932Z,17.90
2022-12-18T11:42:10.115Z,17.80
2022-12-18T11:47:20.357Z,17.70
2022-12-18T11:52:25.282Z,17.60
2022-12-18T11:57:35.932Z,17.60
2022-12-18T12:02:49.181Z,17.70
2022-12-18T12:07:58.260Z,17.90
2022-12-18T12:13:16.465Z,18.00
2022-12-18T12:18:18.448Z,18.10
2022-12-18T12:23:32.167Z,18.10
2022-12-18T12:28:43.011Z,18.00
2022-12-18T12:33:52.659Z,17.90
2022-12-18T12:38:56.795Z,17.90
2022-12-18T12:44:00.258Z,17.90
2022-12-18T12:49:05.384Z,17.80
2022-12-18T12:54:12.825Z,17.70
2022-12-18T12:59:27.921Z,17.70
2022-12-18T13:04:29.600Z,17.80
2022-12-18T13:09:36.730Z,18.00
2022-12-18T13:14:41.019Z,18.10
2022-12-18T13:19:42.668Z,18.10
2022-12-18T13:24:44.599Z,18.00
2022-12-18T13:29:47.650Z,18.00
2022-12-18T13:34:49.425Z,18.00
2022-12-18T13:39:51.049Z,17.90
2022-12-18T13:44:52.765Z,17.80
2022-12-18T13:49:54.748Z,17.70
2022-12-18T13:55:00.484Z,17.70
2022-12-18T14:00:25.559Z,17.70
2022-12-18T14:05:31.835Z,17.70
2022-12-18T14:10:48.005Z,17.60
2022-12-18T14:15:51.369Z,17.50
2022-12-18T14:20:55.774Z,17.50
2022-12-18T14:26:02.115Z,17.60
2022-12-18T14:31:17.844Z,17.70
2022-12-18T14:36:27.195Z,17.80
2022-12-18T14:41:29.777Z,17.80
2022-12-18T14:46:35.259Z,17.80
2022-12-18T14:51:37.244Z,17.70
2022-12-18T14:56:44.183Z,17.70
2022-12-18T15:02:06.341Z,17.70
2022-12-18T15:07:19.256Z,17.60
2022-12-18T15:12:25.818Z,17.50
2022-12-18T15:17:28.209Z,17.50
2022-12-18T15:22:35.449Z,17.60
2022-12-18T15:27:38.791Z,17.70
2022-12-18T15:32:41.040Z,17.80
2022-12-18T15:37:43.425Z,17.90
2022-12-18T15:43:04.239Z,17.90
2022-12-18T15:48:15.973Z,17.90
2022-12-18T15:53:17.666Z,18.00
2022-12-18T15:58:21.143Z,18.10
2022-12-18T16:03:23.102Z,18.20
2022-12-18T16:08:25.519Z,18.30
2022-12-18T16:13:27.311Z,18.40
2022-12-18T16:18:29.050Z,18.40
2022-12-18T16:23:30.906Z,18.40
2022-12-18T16:28:32.600Z,18.40
2022-12-18T16:33:34.309Z,18.40
2022-12-18T16:38:36.034Z,18.20
2022-12-18T16:43:37.946Z,18.20
2022-12-18T16:48:39.858Z,18.10
2022-12-18T16:53:41.700Z,18.10
2022-12-18T16:58:43.687Z,17.90
2022-12-18T17:03:51.717Z,17.90
2022-12-18T17:09:03.801Z,17.90
2022-12-18T17:14:09.036Z,18.10
2022-12-18T17:19:16.860Z,18.40
2022-12-18T17:24:19.128Z,18.80
2022-12-18T17:29:21.226Z,18.90
2022-12-18T17:34:25.307Z,18.90
2022-12-18T17:39:28.759Z,18.90
2022-12-18T17:44:30.422Z,18.70
2022-12-18T17:49:31.957Z,18.60
2022-12-18T17:54:33.866Z,18.50
2022-12-18T17:59:35.729Z,18.30
2022-12-18T18:04:37.560Z,18.20
2022-12-18T18:09:39.330Z,18.10
2022-12-18T18:14:40.947Z,18.10
2022-12-18T18:19:44.157Z,18.00
2022-12-18T18:24:49.761Z,17.90
2022-12-18T18:29:51.554Z,17.90
2022-12-18T18:34:53.396Z,17.90
2022-12-18T18:39:57.013Z,18.00
2022-12-18T18:44:58.558Z,18.10
2022-12-18T18:50:00.235Z,18.20
2022-12-18T18:55:13.222Z,18.10
2022-12-18T19:00:16.159Z,18.10
2022-12-18T19:05:17.880Z,18.10
2022-12-18T19:10:19.576Z,18.20
2022-12-18T19:15:21.991Z,18.30
2022-12-18T19:20:24.075Z,18.40
2022-12-18T19:25:38.220Z,18.40
2022-12-18T19:30:42.546Z,18.30
2022-12-18T19:35:44.271Z,18.30
2022-12-18T19:40:46.329Z,18.30
2022-12-18T19:45:54.163Z,18.40
2022-12-18T19:50:56.065Z,18.50
2022-12-18T19:55:57.935Z,18.50
2022-12-18T20:00:59.764Z,18.40
2022-12-18T20:06:12.433Z,18.30
2022-12-18T20:11:14.171Z,18.20
2022-12-18T20:16:16.025Z,18.30
2022-12-18T20:21:17.869Z,18.50
2022-12-18T20:26:20.027Z,18.50
2022-12-18T20:31:21.983Z,18.50
2022-12-18T20:36:24.549Z,18.40
2022-12-18T20:41:27.704Z,18.30
2022-12-18T20:46:40.396Z,18.20
2022-12-18T20:51:42.121Z,18.10
2022-12-18T20:56:43.905Z,18.20
2022-12-18T21:01:48.414Z,18.40
2022-12-18T21:06:57.836Z,18.50
2022-12-18T21:12:20.994Z,18.50
2022-12-18T21:17:22.655Z,18.50
2022-12-18T21:22:24.714Z,18.30
2022-12-18T21:27:26.800Z,18.20
2022-12-18T21:32:33.435Z,18.10
2022-12-18T21:37:35.305Z,18.00
2022-12-18T21:42:55.606Z,17.90
2022-12-18T21:47:57.554Z,17.70
2022-12-18T21:52:59.109Z,17.60
2022-12-18T21:58:02.775Z,17.50
2022-12-18T22:03:17.101Z,17.40
2022-12-18T22:08:19.722Z,17.40
2022-12-18T22:13:21.720Z,17.30
2022-12-18T22:18:23.303Z,17.20
2022-12-18T22:23:25.546Z,17.10
2022-12-18T22:28:45.992Z,17.00
2022-12-18T22:33:47.734Z,16.90
2022-12-18T22:38:49.367Z,16.80
2022-12-18T22:43:51.030Z,16.80
2022-12-18T22:48:52.771Z,16.70
2022-12-18T22:53:54.511Z,16.60
2022-12-18T22:58:57.250Z,16.60
2022-12-18T23:04:00.973Z,16.50
2022-12-18T23:09:02.737Z,16.50
2022-12-18T23:14:04.374Z,16.40
2022-12-18T23:19:06.304Z,16.30
2022-12-18T23:24:08.236Z,16.30
2022-12-18T23:29:10.061Z,16.30
2022-12-18T23:34:12.611Z,16.20
2022-12-18T23:39:27.028Z,16.20
2022-12-18T23:44:31.091Z,16.10
2022-12-18T23:49:32.849Z,16.10
2022-12-18T23:54:34.770Z,16.10
2022-12-18T23:59:36.470Z,16.00
